sensor_id;sensor_type;location;lat;lon;timestamp;pressure;altitude;pressure_sealevel;temperature
60731;BMP280;46580;52.114;11.674;2024-03-08T00:00:18;-19253.31;;;1.72
60731;BMP280;46580;52.114;11.674;2024-03-08T00:02:45;-19253.31;;;1.72
60731;BMP280;46580;52.114;11.674;2024-03-08T00:05:11;-19254.47;;;1.76
60731;BMP280;46580;52.114;11.674;2024-03-08T00:07:39;-19257.06;;;1.85
60731;BMP280;46580;52.114;11.674;2024-03-08T00:10:07;-19259.50;;;1.93
60731;BMP280;46580;52.114;11.674;2024-03-08T00:12:42;-19257.91;;;1.87
60731;BMP280;46580;52.114;11.674;2024-03-08T00:15:13;-19256.19;;;1.82
60731;BMP280;46580;52.114;11.674;2024-03-08T00:17:41;-19255.19;;;1.78
60731;BMP280;46580;52.114;11.674;2024-03-08T00:20:09;-19255.63;;;1.80
60731;BMP280;46580;52.114;11.674;2024-03-08T00:22:35;-19256.91;;;1.84
60731;BMP280;46580;52.114;11.674;2024-03-08T00:25:01;-19256.78;;;1.84
60731;BMP280;46580;52.114;11.674;2024-03-08T00:27:27;-19255.91;;;1.81
60731;BMP280;46580;52.114;11.674;2024-03-08T00:29:54;-19256.78;;;1.84
60731;BMP280;46580;52.114;11.674;2024-03-08T00:32:19;-19258.94;;;1.91
60731;BMP280;46580;52.114;11.674;2024-03-08T00:34:44;-19258.78;;;1.90
60731;BMP280;46580;52.114;11.674;2024-03-08T00:37:09;-19258.06;;;1.88
60731;BMP280;46580;52.114;11.674;2024-03-08T00:39:36;-19255.75;;;1.80
60731;BMP280;46580;52.114;11.674;2024-03-08T00:42:02;-19253.03;;;1.71
60731;BMP280;46580;52.114;11.674;2024-03-08T00:44:28;-19251.16;;;1.65
60731;BMP280;46580;52.114;11.674;2024-03-08T00:46:53;-19250.44;;;1.62
60731;BMP280;46580;52.114;11.674;2024-03-08T00:49:19;-19249.44;;;1.59
60731;BMP280;46580;52.114;11.674;2024-03-08T00:51:45;-19250.72;;;1.63
60731;BMP280;46580;52.114;11.674;2024-03-08T00:54:10;-19250.59;;;1.63
60731;BMP280;46580;52.114;11.674;2024-03-08T00:56:35;-19248.72;;;1.56
60731;BMP280;46580;52.114;11.674;2024-03-08T00:59:01;-19244.53;;;1.42
60731;BMP280;46580;52.114;11.674;2024-03-08T01:01:28;-19243.81;;;1.40
60731;BMP280;46580;52.114;11.674;2024-03-08T01:03:53;-19242.38;;;1.35
60731;BMP280;46580;52.114;11.674;2024-03-08T01:06:18;-19241.66;;;1.32
60731;BMP280;46580;52.114;11.674;2024-03-08T01:08:44;-19241.81;;;1.33
60731;BMP280;46580;52.114;11.674;2024-03-08T01:11:10;-19242.97;;;1.37
60731;BMP280;46580;52.114;11.674;2024-03-08T01:13:36;-19242.38;;;1.35
60731;BMP280;46580;52.114;11.674;2024-03-08T01:16:01;-19239.81;;;1.26
60731;BMP280;46580;52.114;11.674;2024-03-08T01:18:29;-19239.94;;;1.27
60731;BMP280;46580;52.114;11.674;2024-03-08T01:20:54;-19240.50;;;1.29
60731;BMP280;46580;52.114;11.674;2024-03-08T01:23:19;-19240.22;;;1.28
60731;BMP280;46580;52.114;11.674;2024-03-08T01:25:45;-19239.94;;;1.27
60731;BMP280;46580;52.114;11.674;2024-03-08T01:28:10;-19240.66;;;1.29
60731;BMP280;46580;52.114;11.674;2024-03-08T01:30:38;-19240.09;;;1.27
60731;BMP280;46580;52.114;11.674;2024-03-08T01:33:04;-19240.38;;;1.28
60731;BMP280;46580;52.114;11.674;2024-03-08T01:35:29;-19239.50;;;1.25
60731;BMP280;46580;52.114;11.674;2024-03-08T01:37:54;-19239.94;;;1.27
60731;BMP280;46580;52.114;11.674;2024-03-08T01:40:21;-19238.06;;;1.20
60731;BMP280;46580;52.114;11.674;2024-03-08T01:42:47;-19237.50;;;1.18
60731;BMP280;46580;52.114;11.674;2024-03-08T01:45:13;-19238.38;;;1.21
60731;BMP280;46580;52.114;11.674;2024-03-08T01:47:38;-19237.50;;;1.18
60731;BMP280;46580;52.114;11.674;2024-03-08T01:50:04;-19236.63;;;1.15
60731;BMP280;46580;52.114;11.674;2024-03-08T01:52:32;-19235.91;;;1.13
60731;BMP280;46580;52.114;11.674;2024-03-08T01:55:03;-19235.91;;;1.13
60731;BMP280;46580;52.114;11.674;2024-03-08T01:57:32;-19234.91;;;1.10
60731;BMP280;46580;52.114;11.674;2024-03-08T02:00:01;-19235.47;;;1.11
60731;BMP280;46580;52.114;11.674;2024-03-08T02:02:31;-19235.47;;;1.11
60731;BMP280;46580;52.114;11.674;2024-03-08T02:04:57;-19234.63;;;1.09
60731;BMP280;46580;52.114;11.674;2024-03-08T02:07:22;-19233.19;;;1.04
60731;BMP280;46580;52.114;11.674;2024-03-08T02:09:48;-19233.31;;;1.04
60731;BMP280;46580;52.114;11.674;2024-03-08T02:12:13;-19235.06;;;1.10
60731;BMP280;46580;52.114;11.674;2024-03-08T02:14:40;-19235.06;;;1.10
60731;BMP280;46580;52.114;11.674;2024-03-08T02:17:05;-19234.75;;;1.09
60731;BMP280;46580;52.114;11.674;2024-03-08T02:19:30;-19235.19;;;1.11
60731;BMP280;46580;52.114;11.674;2024-03-08T02:21:57;-19235.63;;;1.12
60731;BMP280;46580;52.114;11.674;2024-03-08T02:24:23;-19235.78;;;1.12
60731;BMP280;46580;52.114;11.674;2024-03-08T02:26:49;-19237.22;;;1.17
60731;BMP280;46580;52.114;11.674;2024-03-08T02:29:14;-19237.34;;;1.18
60731;BMP280;46580;52.114;11.674;2024-03-08T02:31:40;-19236.91;;;1.16
60731;BMP280;46580;52.114;11.674;2024-03-08T02:34:05;-19236.91;;;1.16
60731;BMP280;46580;52.114;11.674;2024-03-08T02:36:30;-19236.50;;;1.15
60731;BMP280;46580;52.114;11.674;2024-03-08T02:39:01;-19236.34;;;1.14
60731;BMP280;46580;52.114;11.674;2024-03-08T02:41:26;-19236.50;;;1.15
60731;BMP280;46580;52.114;11.674;2024-03-08T02:43:52;-19236.06;;;1.13
60731;BMP280;46580;52.114;11.674;2024-03-08T02:46:17;-19236.34;;;1.14
60731;BMP280;46580;52.114;11.674;2024-03-08T02:48:43;-19235.19;;;1.11
60731;BMP280;46580;52.114;11.674;2024-03-08T02:51:08;-19235.19;;;1.11
60731;BMP280;46580;52.114;11.674;2024-03-08T02:53:35;-19233.63;;;1.05
60731;BMP280;46580;52.114;11.674;2024-03-08T02:56:01;-19232.59;;;1.02
60731;BMP280;46580;52.114;11.674;2024-03-08T02:58:26;-19231.59;;;0.98
60731;BMP280;46580;52.114;11.674;2024-03-08T03:00:52;-19232.59;;;1.02
60731;BMP280;46580;52.114;11.674;2024-03-08T03:03:17;-19228.88;;;0.89
60731;BMP280;46580;52.114;11.674;2024-03-08T03:05:43;-19224.84;;;0.75
60731;BMP280;46580;52.114;11.674;2024-03-08T03:08:09;-19226.00;;;0.79
60731;BMP280;46580;52.114;11.674;2024-03-08T03:10:36;-19225.69;;;0.78
60731;BMP280;46580;52.114;11.674;2024-03-08T03:13:02;-19226.00;;;0.79
60731;BMP280;46580;52.114;11.674;2024-03-08T03:15:27;-19229.72;;;0.92
60731;BMP280;46580;52.114;11.674;2024-03-08T03:17:52;-19230.31;;;0.94
60731;BMP280;46580;52.114;11.674;2024-03-08T03:20:18;-19229.44;;;0.91
60731;BMP280;46580;52.114;11.674;2024-03-08T03:22:58;-19227.88;;;0.86
60731;BMP280;46580;52.114;11.674;2024-03-08T03:25:26;-19227.13;;;0.83
60731;BMP280;46580;52.114;11.674;2024-03-08T03:27:54;-19225.69;;;0.78
60731;BMP280;46580;52.114;11.674;2024-03-08T03:30:25;-19226.56;;;0.81
60731;BMP280;46580;52.114;11.674;2024-03-08T03:32:52;-19225.69;;;0.78
60731;BMP280;46580;52.114;11.674;2024-03-08T03:35:20;-19224.69;;;0.75
60731;BMP280;46580;52.114;11.674;2024-03-08T03:37:46;-19226.13;;;0.80
60731;BMP280;46580;52.114;11.674;2024-03-08T03:40:33;-19222.97;;;0.69
60731;BMP280;46580;52.114;11.674;2024-03-08T03:42:58;-19218.78;;;0.55
60731;BMP280;46580;52.114;11.674;2024-03-08T03:45:24;-19216.78;;;0.48
60731;BMP280;46580;52.114;11.674;2024-03-08T03:47:50;-19214.91;;;0.42
60731;BMP280;46580;52.114;11.674;2024-03-08T03:50:15;-19214.63;;;0.41
60731;BMP280;46580;52.114;11.674;2024-03-08T03:52:41;-19211.59;;;0.31
60731;BMP280;46580;52.114;11.674;2024-03-08T03:55:07;-19212.59;;;0.34
60731;BMP280;46580;52.114;11.674;2024-03-08T03:57:34;-19211.16;;;0.29
60731;BMP280;46580;52.114;11.674;2024-03-08T04:00:00;-19211.31;;;0.30
60731;BMP280;46580;52.114;11.674;2024-03-08T04:02:27;-19210.72;;;0.28
60731;BMP280;46580;52.114;11.674;2024-03-08T04:04:53;-19211.31;;;0.30
60731;BMP280;46580;52.114;11.674;2024-03-08T04:07:20;-19211.88;;;0.32
60731;BMP280;46580;52.114;11.674;2024-03-08T04:09:45;-19211.03;;;0.29
60731;BMP280;46580;52.114;11.674;2024-03-08T04:12:11;-19212.59;;;0.34
60731;BMP280;46580;52.114;11.674;2024-03-08T04:14:40;-19212.75;;;0.35
60731;BMP280;46580;52.114;11.674;2024-03-08T04:17:06;-19213.47;;;0.37
60731;BMP280;46580;52.114;11.674;2024-03-08T04:19:33;-19213.47;;;0.37
60731;BMP280;46580;52.114;11.674;2024-03-08T04:21:59;-19213.75;;;0.38
60731;BMP280;46580;52.114;11.674;2024-03-08T04:24:26;-19212.91;;;0.35
60731;BMP280;46580;52.114;11.674;2024-03-08T04:26:51;-19213.03;;;0.36
60731;BMP280;46580;52.114;11.674;2024-03-08T04:29:18;-19210.72;;;0.28
60731;BMP280;46580;52.114;11.674;2024-03-08T04:31:43;-19211.88;;;0.32
60731;BMP280;46580;52.114;11.674;2024-03-08T04:34:09;-19210.44;;;0.27
60731;BMP280;46580;52.114;11.674;2024-03-08T04:36:35;-19210.16;;;0.26
60731;BMP280;46580;52.114;11.674;2024-03-08T04:39:00;-19208.72;;;0.21
60731;BMP280;46580;52.114;11.674;2024-03-08T04:41:26;-19209.88;;;0.25
60731;BMP280;46580;52.114;11.674;2024-03-08T04:43:51;-19211.03;;;0.29
60731;BMP280;46580;52.114;11.674;2024-03-08T04:46:17;-19208.88;;;0.21
60731;BMP280;46580;52.114;11.674;2024-03-08T04:48:43;-19209.16;;;0.22
60731;BMP280;46580;52.114;11.674;2024-03-08T04:51:08;-19210.03;;;0.25
60731;BMP280;46580;52.114;11.674;2024-03-08T04:53:34;-19210.44;;;0.27
60731;BMP280;46580;52.114;11.674;2024-03-08T04:56:00;-19210.72;;;0.28
60731;BMP280;46580;52.114;11.674;2024-03-08T04:58:25;-19210.31;;;0.26
60731;BMP280;46580;52.114;11.674;2024-03-08T05:00:50;-19210.16;;;0.26
60731;BMP280;46580;52.114;11.674;2024-03-08T05:03:16;-19210.03;;;0.25
60731;BMP280;46580;52.114;11.674;2024-03-08T05:05:42;-19211.03;;;0.29
60731;BMP280;46580;52.114;11.674;2024-03-08T05:08:07;-19211.75;;;0.31
60731;BMP280;46580;52.114;11.674;2024-03-08T05:10:32;-19212.59;;;0.34
60731;BMP280;46580;52.114;11.674;2024-03-08T05:12:58;-19210.16;;;0.26
60731;BMP280;46580;52.114;11.674;2024-03-08T05:15:24;-19211.88;;;0.32
60731;BMP280;46580;52.114;11.674;2024-03-08T05:17:49;-19210.16;;;0.26
60731;BMP280;46580;52.114;11.674;2024-03-08T05:20:15;-19208.88;;;0.21
60731;BMP280;46580;52.114;11.674;2024-03-08T05:22:42;-19210.72;;;0.28
60731;BMP280;46580;52.114;11.674;2024-03-08T05:25:08;-19211.31;;;0.30
60731;BMP280;46580;52.114;11.674;2024-03-08T05:27:34;-19213.63;;;0.37
60731;BMP280;46580;52.114;11.674;2024-03-08T05:30:02;-19213.91;;;0.38
60731;BMP280;46580;52.114;11.674;2024-03-08T05:32:29;-19213.19;;;0.36
60731;BMP280;46580;52.114;11.674;2024-03-08T05:34:54;-19215.91;;;0.45
60731;BMP280;46580;52.114;11.674;2024-03-08T05:37:20;-19214.75;;;0.41
60731;BMP280;46580;52.114;11.674;2024-03-08T05:39:46;-19210.88;;;0.28
60731;BMP280;46580;52.114;11.674;2024-03-08T05:42:11;-19208.28;;;0.19
60731;BMP280;46580;52.114;11.674;2024-03-08T05:44:36;-19209.88;;;0.25
60731;BMP280;46580;52.114;11.674;2024-03-08T05:47:02;-19210.16;;;0.26
60731;BMP280;46580;52.114;11.674;2024-03-08T05:49:27;-19209.28;;;0.23
60731;BMP280;46580;52.114;11.674;2024-03-08T05:51:53;-19210.03;;;0.25
60731;BMP280;46580;52.114;11.674;2024-03-08T05:54:19;-19209.16;;;0.22
60731;BMP280;46580;52.114;11.674;2024-03-08T05:56:47;-19210.59;;;0.27
60731;BMP280;46580;52.114;11.674;2024-03-08T05:59:12;-19208.88;;;0.21
60731;BMP280;46580;52.114;11.674;2024-03-08T06:01:38;-19210.44;;;0.27
60731;BMP280;46580;52.114;11.674;2024-03-08T06:04:05;-19211.03;;;0.29
60731;BMP280;46580;52.114;11.674;2024-03-08T06:06:31;-19210.44;;;0.27
60731;BMP280;46580;52.114;11.674;2024-03-08T06:08:57;-19210.31;;;0.26
60731;BMP280;46580;52.114;11.674;2024-03-08T06:11:23;-19214.19;;;0.39
60731;BMP280;46580;52.114;11.674;2024-03-08T06:13:52;-19215.91;;;0.45
60731;BMP280;46580;52.114;11.674;2024-03-08T06:16:20;-19215.34;;;0.43
60731;BMP280;46580;52.114;11.674;2024-03-08T06:18:46;-19213.63;;;0.37
60731;BMP280;46580;52.114;11.674;2024-03-08T06:21:12;-19211.59;;;0.31
60731;BMP280;46580;52.114;11.674;2024-03-08T06:23:41;-19215.19;;;0.43
60731;BMP280;46580;52.114;11.674;2024-03-08T06:26:11;-19217.94;;;0.52
60731;BMP280;46580;52.114;11.674;2024-03-08T06:28:39;-19220.53;;;0.61
60731;BMP280;46580;52.114;11.674;2024-03-08T06:31:05;-19220.09;;;0.59
60731;BMP280;46580;52.114;11.674;2024-03-08T06:33:32;-19220.66;;;0.61
60731;BMP280;46580;52.114;11.674;2024-03-08T06:35:57;-19220.81;;;0.62
60731;BMP280;46580;52.114;11.674;2024-03-08T06:38:24;-19222.09;;;0.66
60731;BMP280;46580;52.114;11.674;2024-03-08T06:40:50;-19222.53;;;0.68
60731;BMP280;46580;52.114;11.674;2024-03-08T06:43:16;-19223.69;;;0.72
60731;BMP280;46580;52.114;11.674;2024-03-08T06:45:43;-19226.13;;;0.80
60731;BMP280;46580;52.114;11.674;2024-03-08T06:48:17;-19229.44;;;0.91
60731;BMP280;46580;52.114;11.674;2024-03-08T06:50:47;-19234.47;;;1.08
60731;BMP280;46580;52.114;11.674;2024-03-08T06:53:13;-19237.22;;;1.17
60731;BMP280;46580;52.114;11.674;2024-03-08T06:55:39;-19238.38;;;1.21
60731;BMP280;46580;52.114;11.674;2024-03-08T06:58:05;-19239.81;;;1.26
60731;BMP280;46580;52.114;11.674;2024-03-08T07:00:32;-19241.09;;;1.30
60731;BMP280;46580;52.114;11.674;2024-03-08T07:02:59;-19241.09;;;1.30
60731;BMP280;46580;52.114;11.674;2024-03-08T07:05:28;-19243.97;;;1.40
60731;BMP280;46580;52.114;11.674;2024-03-08T07:07:54;-19242.97;;;1.37
60731;BMP280;46580;52.114;11.674;2024-03-08T07:10:21;-19245.25;;;1.45
60731;BMP280;46580;52.114;11.674;2024-03-08T07:12:48;-19245.25;;;1.45
60731;BMP280;46580;52.114;11.674;2024-03-08T07:15:14;-19247.56;;;1.52
60731;BMP280;46580;52.114;11.674;2024-03-08T07:17:40;-19249.59;;;1.59
60731;BMP280;46580;52.114;11.674;2024-03-08T07:20:07;-19249.88;;;1.60
60731;BMP280;46580;52.114;11.674;2024-03-08T07:22:38;-19251.31;;;1.65
60731;BMP280;46580;52.114;11.674;2024-03-08T07:25:07;-19252.75;;;1.70
60731;BMP280;46580;52.114;11.674;2024-03-08T07:27:33;-19254.19;;;1.75
60731;BMP280;46580;52.114;11.674;2024-03-08T07:29:59;-19258.22;;;1.88
60731;BMP280;46580;52.114;11.674;2024-03-08T07:32:26;-19261.38;;;1.99
60731;BMP280;46580;52.114;11.674;2024-03-08T07:34:53;-19263.97;;;2.08
60731;BMP280;46580;52.114;11.674;2024-03-08T07:37:20;-19264.69;;;2.10
60731;BMP280;46580;52.114;11.674;2024-03-08T07:39:46;-19266.25;;;2.16
60731;BMP280;46580;52.114;11.674;2024-03-08T07:42:12;-19269.13;;;2.25
60731;BMP280;46580;52.114;11.674;2024-03-08T07:44:38;-19270.00;;;2.28
60731;BMP280;46580;52.114;11.674;2024-03-08T07:47:04;-19274.31;;;2.43
60731;BMP280;46580;52.114;11.674;2024-03-08T07:49:29;-19279.06;;;2.59
60731;BMP280;46580;52.114;11.674;2024-03-08T07:51:56;-19284.22;;;2.77
60731;BMP280;46580;52.114;11.674;2024-03-08T07:54:23;-19285.53;;;2.81
60731;BMP280;46580;52.114;11.674;2024-03-08T07:56:48;-19286.81;;;2.85
60731;BMP280;46580;52.114;11.674;2024-03-08T07:59:15;-19289.97;;;2.96
60731;BMP280;46580;52.114;11.674;2024-03-08T08:01:41;-19293.28;;;3.07
60731;BMP280;46580;52.114;11.674;2024-03-08T08:04:07;-19294.72;;;3.12
60731;BMP280;46580;52.114;11.674;2024-03-08T08:06:37;-19298.88;;;3.26
60731;BMP280;46580;52.114;11.674;2024-03-08T08:09:04;-19298.88;;;3.26
60731;BMP280;46580;52.114;11.674;2024-03-08T08:11:30;-19298.03;;;3.23
60731;BMP280;46580;52.114;11.674;2024-03-08T08:13:56;-19303.19;;;3.41
60731;BMP280;46580;52.114;11.674;2024-03-08T08:16:24;-19309.66;;;3.63
60731;BMP280;46580;52.114;11.674;2024-03-08T08:18:51;-19312.97;;;3.74
60731;BMP280;46580;52.114;11.674;2024-03-08T08:21:18;-19314.69;;;3.80
60731;BMP280;46580;52.114;11.674;2024-03-08T08:23:43;-19315.13;;;3.81
60731;BMP280;46580;52.114;11.674;2024-03-08T08:26:10;-19317.00;;;3.88
60731;BMP280;46580;52.114;11.674;2024-03-08T08:28:36;-19318.72;;;3.93
60731;BMP280;46580;52.114;11.674;2024-03-08T08:31:03;-19322.31;;;4.06
60731;BMP280;46580;52.114;11.674;2024-03-08T08:33:29;-19326.91;;;4.21
60731;BMP280;46580;52.114;11.674;2024-03-08T08:35:55;-19328.91;;;4.28
60731;BMP280;46580;52.114;11.674;2024-03-08T08:38:21;-19332.34;;;4.40
60731;BMP280;46580;52.114;11.674;2024-03-08T08:40:46;-19333.50;;;4.44
60731;BMP280;46580;52.114;11.674;2024-03-08T08:43:12;-19338.38;;;4.60
60731;BMP280;46580;52.114;11.674;2024-03-08T08:45:39;-19340.69;;;4.68
60731;BMP280;46580;52.114;11.674;2024-03-08T08:48:05;-19344.41;;;4.81
60731;BMP280;46580;52.114;11.674;2024-03-08T08:50:31;-19350.44;;;5.01
60731;BMP280;46580;52.114;11.674;2024-03-08T08:52:57;-19354.03;;;5.13
60731;BMP280;46580;52.114;11.674;2024-03-08T08:55:23;-19359.91;;;5.33
60731;BMP280;46580;52.114;11.674;2024-03-08T08:57:52;-19363.06;;;5.44
60731;BMP280;46580;52.114;11.674;2024-03-08T09:00:20;-19365.50;;;5.52
60731;BMP280;46580;52.114;11.674;2024-03-08T09:02:47;-19369.97;;;5.67
60731;BMP280;46580;52.114;11.674;2024-03-08T09:05:13;-19373.97;;;5.81
60731;BMP280;46580;52.114;11.674;2024-03-08T09:07:45;-19378.28;;;5.95
60731;BMP280;46580;52.114;11.674;2024-03-08T09:10:10;-19381.88;;;6.08
60731;BMP280;46580;52.114;11.674;2024-03-08T09:12:38;-19386.91;;;6.25
60731;BMP280;46580;52.114;11.674;2024-03-08T09:15:05;-19391.19;;;6.39
60731;BMP280;46580;52.114;11.674;2024-03-08T09:17:30;-19392.50;;;6.44
60731;BMP280;46580;52.114;11.674;2024-03-08T09:19:58;-19390.06;;;6.35
60731;BMP280;46580;52.114;11.674;2024-03-08T09:22:24;-19393.78;;;6.48
60731;BMP280;46580;52.114;11.674;2024-03-08T09:24:50;-19396.66;;;6.58
60731;BMP280;46580;52.114;11.674;2024-03-08T09:27:15;-19400.66;;;6.71
60731;BMP280;46580;52.114;11.674;2024-03-08T09:29:41;-19399.81;;;6.68
60731;BMP280;46580;52.114;11.674;2024-03-08T09:32:06;-19402.38;;;6.77
60731;BMP280;46580;52.114;11.674;2024-03-08T09:34:32;-19401.25;;;6.73
60731;BMP280;46580;52.114;11.674;2024-03-08T09:36:58;-19405.81;;;6.89
60731;BMP280;46580;52.114;11.674;2024-03-08T09:39:23;-19408.13;;;6.97
60731;BMP280;46580;52.114;11.674;2024-03-08T09:41:48;-19413.28;;;7.14
60731;BMP280;46580;52.114;11.674;2024-03-08T09:44:15;-19411.28;;;7.07
60731;BMP280;46580;52.114;11.674;2024-03-08T09:46:40;-19411.56;;;7.08
60731;BMP280;46580;52.114;11.674;2024-03-08T09:49:06;-19413.28;;;7.14
60731;BMP280;46580;52.114;11.674;2024-03-08T09:51:34;-19412.13;;;7.10
60731;BMP280;46580;52.114;11.674;2024-03-08T09:54:03;-19414.88;;;7.20
60731;BMP280;46580;52.114;11.674;2024-03-08T09:56:32;-19420.44;;;7.39
60731;BMP280;46580;52.114;11.674;2024-03-08T09:58:59;-19423.59;;;7.49
60731;BMP280;46580;52.114;11.674;2024-03-08T10:01:53;-19424.19;;;7.51
60731;BMP280;46580;52.114;11.674;2024-03-08T10:04:22;-19424.91;;;7.54
60731;BMP280;46580;52.114;11.674;2024-03-08T10:06:47;-19427.34;;;7.62
60731;BMP280;46580;52.114;11.674;2024-03-08T10:09:14;-19423.88;;;7.50
60731;BMP280;46580;52.114;11.674;2024-03-08T10:11:41;-19423.59;;;7.49
60731;BMP280;46580;52.114;11.674;2024-03-08T10:14:08;-19425.03;;;7.54
60731;BMP280;46580;52.114;11.674;2024-03-08T10:16:34;-19428.34;;;7.65
60731;BMP280;46580;52.114;11.674;2024-03-08T10:19:00;-19426.91;;;7.61
60731;BMP280;46580;52.114;11.674;2024-03-08T10:21:26;-19430.19;;;7.72
60731;BMP280;46580;52.114;11.674;2024-03-08T10:23:52;-19431.34;;;7.76
60731;BMP280;46580;52.114;11.674;2024-03-08T10:26:18;-19435.22;;;7.89
60731;BMP280;46580;52.114;11.674;2024-03-08T10:28:51;-19435.66;;;7.90
60731;BMP280;46580;52.114;11.674;2024-03-08T10:31:17;-19440.81;;;8.08
60731;BMP280;46580;52.114;11.674;2024-03-08T10:33:44;-19445.09;;;8.22
60731;BMP280;46580;52.114;11.674;2024-03-08T10:36:11;-19443.69;;;8.17
60731;BMP280;46580;52.114;11.674;2024-03-08T10:38:39;-19445.81;;;8.25
60731;BMP280;46580;52.114;11.674;2024-03-08T10:41:09;-19443.97;;;8.18
60731;BMP280;46580;52.114;11.674;2024-03-08T10:47:03;-19450.69;;;8.41
60731;BMP280;46580;52.114;11.674;2024-03-08T10:49:39;-19456.56;;;8.61
60731;BMP280;46580;52.114;11.674;2024-03-08T10:52:09;-19455.72;;;8.58
60731;BMP280;46580;52.114;11.674;2024-03-08T10:54:36;-19460.28;;;8.74
60731;BMP280;46580;52.114;11.674;2024-03-08T10:57:05;-19458.88;;;8.69
60731;BMP280;46580;52.114;11.674;2024-03-08T10:59:32;-19463.16;;;8.84
60731;BMP280;46580;52.114;11.674;2024-03-08T11:01:59;-19459.72;;;8.72
60731;BMP280;46580;52.114;11.674;2024-03-08T11:04:25;-19460.16;;;8.73
60731;BMP280;46580;52.114;11.674;2024-03-08T11:06:51;-19462.00;;;8.80
60731;BMP280;46580;52.114;11.674;2024-03-08T11:09:35;-19457.72;;;8.65
60731;BMP280;46580;52.114;11.674;2024-03-08T11:12:21;-19457.44;;;8.64
60731;BMP280;46580;52.114;11.674;2024-03-08T11:14:48;-19458.72;;;8.69
60731;BMP280;46580;52.114;11.674;2024-03-08T11:19:56;-19463.16;;;8.84
60731;BMP280;46580;52.114;11.674;2024-03-08T11:22:25;-19465.16;;;8.91
60731;BMP280;46580;52.114;11.674;2024-03-08T11:24:53;-19469.31;;;9.05
60731;BMP280;46580;52.114;11.674;2024-03-08T11:27:18;-19473.03;;;9.17
60731;BMP280;46580;52.114;11.674;2024-03-08T11:29:59;-19476.34;;;9.28
60731;BMP280;46580;52.114;11.674;2024-03-08T11:32:27;-19480.19;;;9.42
60731;BMP280;46580;52.114;11.674;2024-03-08T11:34:54;-19476.91;;;9.30
60731;BMP280;46580;52.114;11.674;2024-03-08T11:37:21;-19473.19;;;9.18
60731;BMP280;46580;52.114;11.674;2024-03-08T11:39:48;-19476.34;;;9.28
60731;BMP280;46580;52.114;11.674;2024-03-08T11:42:14;-19478.75;;;9.37
60731;BMP280;46580;52.114;11.674;2024-03-08T11:44:42;-19476.75;;;9.30
60731;BMP280;46580;52.114;11.674;2024-03-08T11:47:11;-19482.06;;;9.48
60731;BMP280;46580;52.114;11.674;2024-03-08T11:49:37;-19480.50;;;9.43
60731;BMP280;46580;52.114;11.674;2024-03-08T11:52:04;-19477.47;;;9.32
60731;BMP280;46580;52.114;11.674;2024-03-08T11:54:29;-19480.34;;;9.42
60731;BMP280;46580;52.114;11.674;2024-03-08T11:56:56;-19487.50;;;9.66
60731;BMP280;46580;52.114;11.674;2024-03-08T11:59:27;-19486.63;;;9.64
60731;BMP280;46580;52.114;11.674;2024-03-08T12:02:05;-19488.22;;;9.69
60731;BMP280;46580;52.114;11.674;2024-03-08T12:04:32;-19489.34;;;9.73
60731;BMP280;46580;52.114;11.674;2024-03-08T12:07:01;-19492.66;;;9.84
60731;BMP280;46580;52.114;11.674;2024-03-08T12:09:32;-19489.66;;;9.74
60731;BMP280;46580;52.114;11.674;2024-03-08T12:11:58;-19486.06;;;9.62
60731;BMP280;46580;52.114;11.674;2024-03-08T12:14:25;-19493.22;;;9.86
60731;BMP280;46580;52.114;11.674;2024-03-08T12:16:51;-19496.81;;;9.98
60731;BMP280;46580;52.114;11.674;2024-03-08T12:19:17;-19499.81;;;10.08
60731;BMP280;46580;52.114;11.674;2024-03-08T12:21:43;-19502.09;;;10.16
60731;BMP280;46580;52.114;11.674;2024-03-08T12:24:15;-19502.53;;;10.18
60731;BMP280;46580;52.114;11.674;2024-03-08T12:26:45;-19507.81;;;10.36
60731;BMP280;46580;52.114;11.674;2024-03-08T12:29:15;-19508.25;;;10.37
60731;BMP280;46580;52.114;11.674;2024-03-08T12:31:46;-19505.25;;;10.27
60731;BMP280;46580;52.114;11.674;2024-03-08T12:34:12;-19511.53;;;10.48
60731;BMP280;46580;52.114;11.674;2024-03-08T12:36:47;-19516.84;;;10.66
60731;BMP280;46580;52.114;11.674;2024-03-08T12:39:17;-19508.81;;;10.39
60731;BMP280;46580;52.114;11.674;2024-03-08T12:41:43;-19507.53;;;10.35
60731;BMP280;46580;52.114;11.674;2024-03-08T12:44:09;-19503.53;;;10.21
60731;BMP280;46580;52.114;11.674;2024-03-08T12:46:37;-19505.97;;;10.29
60731;BMP280;46580;52.114;11.674;2024-03-08T12:49:08;-19511.41;;;10.48
60731;BMP280;46580;52.114;11.674;2024-03-08T12:51:38;-19510.81;;;10.46
60731;BMP280;46580;52.114;11.674;2024-03-08T12:54:05;-19516.13;;;10.64
60731;BMP280;46580;52.114;11.674;2024-03-08T12:56:35;-19527.28;;;11.02
60731;BMP280;46580;52.114;11.674;2024-03-08T12:59:03;-19517.69;;;10.69
60731;BMP280;46580;52.114;11.674;2024-03-08T13:01:30;-19516.56;;;10.65
60731;BMP280;46580;52.114;11.674;2024-03-08T13:03:57;-19515.56;;;10.62
60731;BMP280;46580;52.114;11.674;2024-03-08T13:06:23;-19508.69;;;10.39
60731;BMP280;46580;52.114;11.674;2024-03-08T13:08:50;-19507.53;;;10.35
60731;BMP280;46580;52.114;11.674;2024-03-08T13:11:17;-19513.84;;;10.56
60731;BMP280;46580;52.114;11.674;2024-03-08T13:13:43;-19512.97;;;10.53
60731;BMP280;46580;52.114;11.674;2024-03-08T13:16:10;-19520.69;;;10.79
60731;BMP280;46580;52.114;11.674;2024-03-08T13:18:36;-19519.13;;;10.74
60731;BMP280;46580;52.114;11.674;2024-03-08T13:21:02;-19518.41;;;10.72
60731;BMP280;46580;52.114;11.674;2024-03-08T13:23:32;-19513.41;;;10.55
60731;BMP280;46580;52.114;11.674;2024-03-08T13:26:04;-19507.25;;;10.34
60731;BMP280;46580;52.114;11.674;2024-03-08T13:28:30;-19512.13;;;10.50
60731;BMP280;46580;52.114;11.674;2024-03-08T13:31:02;-19517.69;;;10.69
60731;BMP280;46580;52.114;11.674;2024-03-08T13:33:28;-19514.13;;;10.57
60731;BMP280;46580;52.114;11.674;2024-03-08T13:35:53;-19518.13;;;10.71
60731;BMP280;46580;52.114;11.674;2024-03-08T13:38:19;-19517.84;;;10.70
60731;BMP280;46580;52.114;11.674;2024-03-08T13:40:46;-19513.13;;;10.54
60731;BMP280;46580;52.114;11.674;2024-03-08T13:43:14;-19517.28;;;10.68
60731;BMP280;46580;52.114;11.674;2024-03-08T13:45:40;-19518.56;;;10.72
60731;BMP280;46580;52.114;11.674;2024-03-08T13:48:06;-19511.13;;;10.47
60731;BMP280;46580;52.114;11.674;2024-03-08T13:50:32;-19513.25;;;10.54
60731;BMP280;46580;52.114;11.674;2024-03-08T13:52:57;-19506.97;;;10.33
60731;BMP280;46580;52.114;11.674;2024-03-08T13:55:23;-19507.25;;;10.34
60731;BMP280;46580;52.114;11.674;2024-03-08T13:57:50;-19510.41;;;10.44